createdAt,value
2019-03-04T00:03:41.878Z,74.53
2019-03-04T00:08:44.580Z,74.46
2019-03-04T00:13:47.276Z,73.69
2019-03-04T00:18:49.984Z,73.30
2019-03-04T00:23:52.677Z,73.62
2019-03-04T00:28:55.395Z,73.03
2019-03-04T00:33:58.240Z,73.03
2019-03-04T00:39:00.973Z,72.81
2019-03-04T00:44:03.693Z,72.90
2019-03-04T00:49:06.387Z,72.49
2019-03-04T00:54:09.083Z,71.94
2019-03-04T00:59:11.784Z,72.13
2019-03-04T01:04:14.498Z,71.56
2019-03-04T01:09:17.433Z,71.06
2019-03-04T01:14:20.160Z,71.12
2019-03-04T01:19:22.897Z,70.54
2019-03-04T01:24:25.622Z,70.41
2019-03-04T01:29:28.315Z,69.90
2019-03-04T01:34:31.006Z,69.85
2019-03-04T01:39:33.696Z,70.15
2019-03-04T01:44:36.398Z,69.88
2019-03-04T01:49:39.120Z,69.47
2019-03-04T01:54:41.841Z,69.29
2019-03-04T01:59:44.552Z,69.22
2019-03-04T02:04:47.237Z,69.16
2019-03-04T02:09:49.956Z,68.96
2019-03-04T02:14:52.713Z,69.00
2019-03-04T02:19:55.412Z,68.78
2019-03-04T02:24:58.134Z,68.63
2019-03-04T02:30:00.839Z,68.57
2019-03-04T02:35:03.856Z,68.78
2019-03-04T02:40:07.372Z,68.51
2019-03-04T02:45:13.401Z,68.56
2019-03-04T02:50:16.139Z,68.22
2019-03-04T02:55:18.852Z,68.06
2019-03-04T03:00:21.609Z,67.89
2019-03-04T03:05:24.318Z,67.94
2019-03-04T03:10:27.022Z,67.70
2019-03-04T03:15:29.722Z,67.65
2019-03-04T03:20:32.438Z,67.71
2019-03-04T03:25:35.132Z,67.43
2019-03-04T03:30:37.854Z,67.92
2019-03-04T03:35:40.582Z,67.38
2019-03-04T03:40:43.316Z,66.94
2019-03-04T03:45:46.029Z,67.01
2019-03-04T03:50:48.750Z,67.11
2019-03-04T03:55:51.588Z,67.48
2019-03-04T04:00:54.372Z,67.47
2019-03-04T04:05:57.138Z,67.27
2019-03-04T04:10:59.931Z,67.28
2019-03-04T04:16:02.641Z,67.35
2019-03-04T04:21:05.349Z,66.71
2019-03-04T04:26:20.406Z,66.68
2019-03-04T04:31:23.120Z,66.59
2019-03-04T04:36:25.822Z,66.27
2019-03-04T04:41:28.513Z,65.85
2019-03-04T04:46:54.242Z,66.16
2019-03-04T04:51:56.949Z,66.04
2019-03-04T04:56:59.653Z,66.10
2019-03-04T05:02:02.374Z,65.73
2019-03-04T05:07:05.069Z,65.31
2019-03-04T05:12:07.767Z,65.61
2019-03-04T05:17:10.469Z,65.23
2019-03-04T05:22:13.192Z,64.96
2019-03-04T05:27:15.914Z,65.13
2019-03-04T05:32:18.610Z,64.65
2019-03-04T05:37:21.319Z,64.14
2019-03-04T05:42:24.632Z,64.07
2019-03-04T05:47:27.446Z,63.67
2019-03-04T05:52:30.168Z,63.11
2019-03-04T05:57:32.851Z,62.67
2019-03-04T06:02:35.548Z,62.45
2019-03-04T06:07:41.882Z,61.57
2019-03-04T06:12:44.587Z,61.45
2019-03-04T06:17:47.334Z,61.13
2019-03-04T06:22:50.051Z,61.26
2019-03-04T06:27:52.764Z,61.57
2019-03-04T06:32:55.477Z,61.14
2019-03-04T06:37:58.709Z,60.72
2019-03-04T06:43:01.549Z,60.35
2019-03-04T06:48:09.174Z,60.21
2019-03-04T06:53:11.923Z,59.81
2019-03-04T06:58:14.631Z,59.59
2019-03-04T07:03:53.986Z,59.53
2019-03-04T07:09:15.701Z,59.51
2019-03-04T07:14:18.428Z,59.70
2019-03-04T07:19:32.852Z,59.95
2019-03-04T07:24:35.565Z,61.57
2019-03-04T07:29:39.192Z,64.30
2019-03-04T07:34:41.894Z,63.64
2019-03-04T07:39:44.618Z,62.77
2019-03-04T07:44:47.822Z,63.11
2019-03-04T07:49:50.717Z,66.23
2019-03-04T07:54:53.403Z,74.98
2019-03-04T07:59:57.017Z,78.23
2019-03-04T08:04:59.790Z,78.13
2019-03-04T08:11:18.619Z,77.72
2019-03-04T08:16:21.353Z,76.55
2019-03-04T08:21:24.106Z,74.95
2019-03-04T08:26:26.816Z,73.06
2019-03-04T08:31:29.748Z,70.58
2019-03-04T08:36:32.468Z,68.83
2019-03-04T08:41:35.190Z,68.54
2019-03-04T08:46:37.908Z,67.61
2019-03-04T08:51:40.630Z,67.94
2019-03-04T08:56:43.603Z,68.05
2019-03-04T09:01:46.305Z,67.59
2019-03-04T09:06:49.046Z,67.26
2019-03-04T09:11:51.903Z,66.80
2019-03-04T09:16:54.598Z,66.14
2019-03-04T09:21:57.305Z,66.40
2019-03-04T09:26:59.992Z,67.38
2019-03-04T09:32:02.711Z,66.14
2019-03-04T09:37:05.436Z,65.53
2019-03-04T09:42:18.204Z,66.46
2019-03-04T09:47:20.897Z,67.59
2019-03-04T09:52:23.600Z,72.13
2019-03-04T09:57:26.299Z,74.03
2019-03-04T10:02:40.506Z,73.87
2019-03-04T10:08:32.414Z,72.76
2019-03-04T10:13:29.481Z,71.64
2019-03-04T10:24:32.784Z,66.50
2019-03-04T10:30:14.796Z,65.61
2019-03-04T10:36:19.138Z,65.22
2019-03-04T10:42:17.952Z,64.60
2019-03-04T10:47:20.675Z,63.84
2019-03-04T10:52:23.415Z,62.55
2019-03-04T10:57:26.102Z,63.02
2019-03-04T11:02:28.799Z,62.24
2019-03-04T11:07:31.509Z,61.80
2019-03-04T11:12:34.219Z,58.38
2019-03-04T11:17:37.038Z,61.46
2019-03-04T11:22:39.930Z,63.30
2019-03-04T11:27:42.721Z,64.07
2019-03-04T11:32:45.422Z,64.65
2019-03-04T11:37:48.139Z,64.05
2019-03-04T11:42:51.159Z,64.64
2019-03-04T11:47:54.262Z,62.15
2019-03-04T11:52:57.765Z,63.06
2019-03-04T11:58:01.122Z,62.54
2019-03-04T12:03:03.980Z,61.21
2019-03-04T12:08:10.154Z,64.61
2019-03-04T12:13:12.901Z,68.49
2019-03-04T12:18:15.832Z,75.25
2019-03-04T12:23:21.148Z,79.26
2019-03-04T12:28:23.977Z,80.37
2019-03-04T12:33:27.301Z,80.70
2019-03-04T12:38:30.762Z,79.69
2019-03-04T12:43:34.203Z,78.33
2019-03-04T12:48:37.560Z,77.80
2019-03-04T12:53:40.999Z,76.73
2019-03-04T12:58:43.801Z,76.12
2019-03-04T13:03:46.511Z,75.83
2019-03-04T13:08:49.212Z,75.62
2019-03-04T13:13:51.930Z,74.24
2019-03-04T13:18:54.639Z,74.42
2019-03-04T13:23:57.323Z,73.52
2019-03-04T13:29:00.023Z,72.40
2019-03-04T13:34:02.735Z,70.56
2019-03-04T13:39:07.189Z,69.38
2019-03-04T13:44:09.892Z,67.40
2019-03-04T13:49:12.580Z,67.10
2019-03-04T13:54:15.301Z,66.98
2019-03-04T13:59:17.997Z,66.10
2019-03-04T14:04:20.690Z,65.89
2019-03-04T14:09:23.405Z,65.72
2019-03-04T14:14:26.128Z,65.29
2019-03-04T14:19:28.848Z,64.96
2019-03-04T14:24:31.603Z,66.40
2019-03-04T14:29:34.355Z,67.01
2019-03-04T14:34:37.064Z,67.34
2019-03-04T14:39:39.920Z,67.38
2019-03-04T14:44:42.625Z,66.85
2019-03-04T14:49:45.360Z,67.00
2019-03-04T14:54:48.067Z,66.57
2019-03-04T14:59:50.794Z,66.25
2019-03-04T15:04:53.489Z,68.37
2019-03-04T15:09:56.191Z,68.33
2019-03-04T15:14:58.907Z,67.86
2019-03-04T15:20:08.726Z,67.13
2019-03-04T15:25:09.713Z,66.77
2019-03-04T15:30:12.426Z,66.04
2019-03-04T15:35:15.169Z,65.92
2019-03-04T15:40:17.888Z,65.72
2019-03-04T15:45:21.196Z,64.44
2019-03-04T15:50:24.032Z,64.86
2019-03-04T15:55:26.722Z,66.54
2019-03-04T16:00:31.537Z,65.11
2019-03-04T16:05:34.382Z,65.05
2019-03-04T16:10:37.131Z,64.98
2019-03-04T16:15:42.035Z,64.65
2019-03-04T16:20:44.751Z,64.22
2019-03-04T16:25:47.552Z,64.55
2019-03-04T16:30:50.829Z,63.81
2019-03-04T16:35:53.547Z,63.15
2019-03-04T16:40:56.269Z,63.30
2019-03-04T16:45:58.996Z,62.99
2019-03-04T16:51:01.722Z,63.16
2019-03-04T16:56:04.624Z,62.97
2019-03-04T17:01:07.607Z,63.37
2019-03-04T17:06:10.373Z,63.80
2019-03-04T17:11:13.239Z,63.48
2019-03-04T17:16:16.009Z,63.47
2019-03-04T17:21:18.739Z,63.80
2019-03-04T17:26:21.470Z,63.19
2019-03-04T17:31:24.470Z,63.46
2019-03-04T17:36:27.158Z,63.05
2019-03-04T17:41:29.867Z,63.05
2019-03-04T17:46:32.596Z,62.98
2019-03-04T17:51:35.305Z,63.01
2019-03-04T17:56:38.036Z,62.62
2019-03-04T18:01:40.745Z,62.54
2019-03-04T18:06:43.450Z,62.08
2019-03-04T18:11:46.158Z,63.07
2019-03-04T18:16:48.848Z,63.47
2019-03-04T18:21:51.590Z,63.93
2019-03-04T18:27:03.620Z,64.43
2019-03-04T18:32:43.428Z,64.81
2019-03-04T18:38:43.953Z,65.30
2019-03-04T18:44:05.751Z,65.57
2019-03-04T18:49:09.263Z,66.00
2019-03-04T18:54:20.958Z,65.90
2019-03-04T19:04:25.935Z,64.25
2019-03-04T19:09:28.630Z,64.61
2019-03-04T19:14:31.332Z,64.76
2019-03-04T19:19:34.041Z,64.87
2019-03-04T19:24:36.728Z,64.89
2019-03-04T19:29:39.438Z,65.56
2019-03-04T19:34:42.138Z,65.55
2019-03-04T19:39:44.826Z,65.88
2019-03-04T19:44:47.535Z,66.33
2019-03-04T19:49:50.233Z,66.58
2019-03-04T19:54:52.930Z,66.99
2019-03-04T19:59:55.624Z,67.00
2019-03-04T20:04:58.321Z,66.72
2019-03-04T20:10:01.007Z,67.16
2019-03-04T20:15:10.262Z,66.71
2019-03-04T20:20:13.016Z,66.72
2019-03-04T20:25:16.143Z,66.51
2019-03-04T20:30:18.884Z,66.48
2019-03-04T20:35:21.706Z,66.85
2019-03-04T20:40:24.407Z,66.70
2019-03-04T20:45:27.458Z,66.91
2019-03-04T20:50:30.167Z,67.25
2019-03-04T20:55:32.910Z,67.52
2019-03-04T21:00:35.903Z,67.75
2019-03-04T21:05:38.691Z,67.64
2019-03-04T21:10:41.401Z,67.82
2019-03-04T21:15:44.098Z,67.72
2019-03-04T21:20:46.787Z,67.91
2019-03-04T21:26:07.619Z,67.80
2019-03-04T21:31:53.330Z,67.35
2019-03-04T21:37:04.466Z,67.61
2019-03-04T21:42:34.627Z,67.37
2019-03-04T21:47:44.356Z,66.86
2019-03-04T21:53:20.658Z,66.32
2019-03-04T21:58:23.500Z,66.26
2019-03-04T22:03:30.745Z,66.27
2019-03-04T22:08:33.455Z,66.27
2019-03-04T22:13:36.160Z,66.21
2019-03-04T22:18:38.961Z,66.46
2019-03-04T22:23:41.696Z,66.27
2019-03-04T22:28:44.385Z,66.44
2019-03-04T22:33:47.081Z,66.65
2019-03-04T22:38:49.781Z,67.00
2019-03-04T22:43:52.475Z,66.90
2019-03-04T22:48:55.174Z,66.83
2019-03-04T22:53:57.865Z,66.53
2019-03-04T22:59:00.596Z,66.20
2019-03-04T23:04:12.627Z,65.96
2019-03-04T23:09:16.562Z,65.83
2019-03-04T23:14:24.998Z,65.98
2019-03-04T23:19:27.684Z,66.42
2019-03-04T23:24:30.419Z,66.32
2019-03-04T23:29:33.118Z,67.61
2019-03-04T23:34:35.830Z,68.73
2019-03-04T23:39:38.549Z,69.10
2019-03-04T23:44:41.244Z,69.17
2019-03-04T23:49:43.940Z,68.82
2019-03-04T23:54:46.638Z,69.06
2019-03-04T23:59:49.350Z,69.30
